sensor_id;sensor_type;location;lat;lon;timestamp;pressure;altitude;pressure_sealevel;temperature;humidity
27643;BME280;15053;48.618;10.024;2023-02-24T00:01:14;93773.28;;;8.90;89.94
27643;BME280;15053;48.618;10.024;2023-02-24T00:03:51;93773.59;;;8.89;89.82
27643;BME280;15053;48.618;10.024;2023-02-24T00:06:18;93754.81;;;8.78;89.51
27643;BME280;15053;48.618;10.024;2023-02-24T00:08:45;93764.91;;;8.80;89.42
27643;BME280;15053;48.618;10.024;2023-02-24T00:11:14;93762.50;;;8.83;89.63
27643;BME280;15053;48.618;10.024;2023-02-24T00:13:43;93760.19;;;8.82;89.92
27643;BME280;15053;48.618;10.024;2023-02-24T00:16:15;93754.25;;;8.81;89.80
27643;BME280;15053;48.618;10.024;2023-02-24T00:18:43;93755.78;;;8.82;89.70
27643;BME280;15053;48.618;10.024;2023-02-24T00:21:13;93755.00;;;8.82;89.87
27643;BME280;15053;48.618;10.024;2023-02-24T00:23:42;93760.19;;;8.82;89.81
27643;BME280;15053;48.618;10.024;2023-02-24T00:26:10;93749.81;;;8.82;89.98
27643;BME280;15053;48.618;10.024;2023-02-24T00:28:38;93756.56;;;8.83;89.71
27643;BME280;15053;48.618;10.024;2023-02-24T00:31:08;93756.56;;;8.83;89.70
27643;BME280;15053;48.618;10.024;2023-02-24T00:33:40;93747.50;;;8.80;89.87
27643;BME280;15053;48.618;10.024;2023-02-24T00:36:18;93744.91;;;8.80;89.68
27643;BME280;15053;48.618;10.024;2023-02-24T00:38:57;93738.47;;;8.78;90.71
27643;BME280;15053;48.618;10.024;2023-02-24T00:41:26;93731.63;;;8.82;90.47
27643;BME280;15053;48.618;10.024;2023-02-24T00:44:03;93737.31;;;8.84;90.77
27643;BME280;15053;48.618;10.024;2023-02-24T00:46:44;93728.00;;;8.83;90.24
27643;BME280;15053;48.618;10.024;2023-02-24T00:49:16;93725.38;;;8.83;90.39
27643;BME280;15053;48.618;10.024;2023-02-24T00:51:47;93731.34;;;8.83;90.02
27643;BME280;15053;48.618;10.024;2023-02-24T00:54:15;93730.59;;;8.83;89.74
27643;BME280;15053;48.618;10.024;2023-02-24T00:56:43;93724.91;;;8.81;90.42
27643;BME280;15053;48.618;10.024;2023-02-24T00:59:11;93723.84;;;8.82;90.31
27643;BME280;15053;48.618;10.024;2023-02-24T01:01:40;93727.50;;;8.81;90.64
27643;BME280;15053;48.618;10.024;2023-02-24T01:04:07;93725.97;;;8.80;90.33
27643;BME280;15053;48.618;10.024;2023-02-24T01:06:39;93724.41;;;8.79;90.19
27643;BME280;15053;48.618;10.024;2023-02-24T01:09:08;93714.81;;;8.79;90.17
27643;BME280;15053;48.618;10.024;2023-02-24T01:11:37;93717.13;;;8.81;90.57
27643;BME280;15053;48.618;10.024;2023-02-24T01:14:27;93722.31;;;8.81;90.16
27643;BME280;15053;48.618;10.024;2023-02-24T01:16:54;93718.66;;;8.82;90.44
27643;BME280;15053;48.618;10.024;2023-02-24T01:19:26;93708.56;;;8.80;89.73
27643;BME280;15053;48.618;10.024;2023-02-24T01:22:07;93703.66;;;8.79;89.85
27643;BME280;15053;48.618;10.024;2023-02-24T01:24:36;93703.47;;;8.75;90.22
27643;BME280;15053;48.618;10.024;2023-02-24T01:27:06;93697.72;;;8.78;90.17
27643;BME280;15053;48.618;10.024;2023-02-24T01:29:34;93706.84;;;8.76;90.14
27643;BME280;15053;48.618;10.024;2023-02-24T01:32:07;93705.88;;;8.72;90.38
27643;BME280;15053;48.618;10.024;2023-02-24T01:34:39;93701.25;;;8.69;90.19
27643;BME280;15053;48.618;10.024;2023-02-24T01:37:08;93703.66;;;8.65;90.90
27643;BME280;15053;48.618;10.024;2023-02-24T01:39:35;93705.75;;;8.63;90.50
27643;BME280;15053;48.618;10.024;2023-02-24T01:42:03;93708.09;;;8.65;91.05
27643;BME280;15053;48.618;10.024;2023-02-24T01:46:59;93704.41;;;8.66;91.39
27643;BME280;15053;48.618;10.024;2023-02-24T01:49:36;93704.41;;;8.66;90.86
27643;BME280;15053;48.618;10.024;2023-02-24T01:52:08;93689.91;;;8.65;91.54
27643;BME280;15053;48.618;10.024;2023-02-24T01:54:39;93692.00;;;8.63;91.41
27643;BME280;15053;48.618;10.024;2023-02-24T01:57:09;93679.81;;;8.63;92.02
27643;BME280;15053;48.618;10.024;2023-02-24T01:59:43;93684.72;;;8.65;92.05
27643;BME280;15053;48.618;10.024;2023-02-24T02:02:13;93677.69;;;8.65;92.69
27643;BME280;15053;48.618;10.024;2023-02-24T02:04:45;93673.16;;;8.71;92.28
27643;BME280;15053;48.618;10.024;2023-02-24T02:07:16;93665.09;;;8.72;92.29
27643;BME280;15053;48.618;10.024;2023-02-24T02:09:44;93665.38;;;8.71;92.32
27643;BME280;15053;48.618;10.024;2023-02-24T02:12:12;93664.63;;;8.70;92.86
27643;BME280;15053;48.618;10.024;2023-02-24T02:14:44;93669.84;;;8.70;93.01
27643;BME280;15053;48.618;10.024;2023-02-24T02:17:31;93660.97;;;8.71;93.28
27643;BME280;15053;48.618;10.024;2023-02-24T02:20:14;93664.63;;;8.70;92.92
27643;BME280;15053;48.618;10.024;2023-02-24T02:34:05;93660.59;;;8.78;94.46
27643;BME280;15053;48.618;10.024;2023-02-24T02:36:54;93659.03;;;8.77;94.16
27643;BME280;15053;48.618;10.024;2023-02-24T02:42:20;93657.22;;;8.77;95.22
27643;BME280;15053;48.618;10.024;2023-02-24T02:47:40;93657.59;;;8.71;95.19
27643;BME280;15053;48.618;10.024;2023-02-24T02:50:09;93658.94;;;8.68;95.30
27643;BME280;15053;48.618;10.024;2023-02-24T02:52:50;93662.13;;;8.65;95.50
27643;BME280;15053;48.618;10.024;2023-02-24T02:55:24;93656.19;;;8.65;95.41
27643;BME280;15053;48.618;10.024;2023-02-24T02:57:55;93656.75;;;8.62;95.53
27643;BME280;15053;48.618;10.024;2023-02-24T03:00:27;93651.56;;;8.62;96.06
27643;BME280;15053;48.618;10.024;2023-02-24T03:03:07;93651.56;;;8.62;96.35
27643;BME280;15053;48.618;10.024;2023-02-24T03:05:41;93647.16;;;8.62;96.39
27643;BME280;15053;48.618;10.024;2023-02-24T03:08:15;93644.56;;;8.62;96.35
27643;BME280;15053;48.618;10.024;2023-02-24T03:10:46;93644.56;;;8.62;96.85
27643;BME280;15053;48.618;10.024;2023-02-24T03:13:20;93633.88;;;8.64;96.83
27643;BME280;15053;48.618;10.024;2023-02-24T03:15:51;93636.16;;;8.65;97.06
27643;BME280;15053;48.618;10.024;2023-02-24T03:18:22;93629.25;;;8.61;96.82
27643;BME280;15053;48.618;10.024;2023-02-24T03:21:01;93628.69;;;8.64;97.68
27643;BME280;15053;48.618;10.024;2023-02-24T03:23:39;93622.50;;;8.60;97.49
27643;BME280;15053;48.618;10.024;2023-02-24T03:28:57;93616.94;;;8.53;97.20
27643;BME280;15053;48.618;10.024;2023-02-24T03:31:40;93620.03;;;8.55;97.08
27643;BME280;15053;48.618;10.024;2023-02-24T03:34:36;93626.56;;;8.52;97.56
27643;BME280;15053;48.618;10.024;2023-02-24T03:37:07;93612.13;;;8.46;97.61
27643;BME280;15053;48.618;10.024;2023-02-24T03:39:34;93619.66;;;8.48;97.65
27643;BME280;15053;48.618;10.024;2023-02-24T03:42:16;93617.06;;;8.48;97.46
27643;BME280;15053;48.618;10.024;2023-02-24T03:44:44;93618.09;;;8.47;97.48
27643;BME280;15053;48.618;10.024;2023-02-24T03:47:13;93615.03;;;8.45;97.63
27643;BME280;15053;48.618;10.024;2023-02-24T03:49:41;93616.59;;;8.46;97.30
27643;BME280;15053;48.618;10.024;2023-02-24T03:57:58;93604.19;;;8.43;97.08
27643;BME280;15053;48.618;10.024;2023-02-24T04:01:13;93604.47;;;8.41;97.09
27643;BME280;15053;48.618;10.024;2023-02-24T04:09:16;93604.56;;;8.36;98.00
27643;BME280;15053;48.618;10.024;2023-02-24T04:12:13;93612.06;;;8.38;97.51
27643;BME280;15053;48.618;10.024;2023-02-24T04:15:05;93605.03;;;8.38;97.29
27643;BME280;15053;48.618;10.024;2023-02-24T04:17:52;93606.56;;;8.39;97.17
27643;BME280;15053;48.618;10.024;2023-02-24T04:20:25;93611.75;;;8.39;96.90
27643;BME280;15053;48.618;10.024;2023-02-24T04:23:09;93604.28;;;8.38;97.31
27643;BME280;15053;48.618;10.024;2023-02-24T04:25:41;93600.72;;;8.34;97.28
27643;BME280;15053;48.618;10.024;2023-02-24T04:28:10;93599.09;;;8.38;97.59
27643;BME280;15053;48.618;10.024;2023-02-24T04:30:44;93597.53;;;8.37;97.12
27643;BME280;15053;48.618;10.024;2023-02-24T04:33:13;93587.28;;;8.32;97.46
27643;BME280;15053;48.618;10.024;2023-02-24T04:35:44;93583.31;;;8.34;97.66
27643;BME280;15053;48.618;10.024;2023-02-24T04:38:11;93593.97;;;8.32;97.37
27643;BME280;15053;48.618;10.024;2023-02-24T04:40:37;93588.31;;;8.30;96.41
27643;BME280;15053;48.618;10.024;2023-02-24T04:43:06;93584.47;;;8.28;96.79
27643;BME280;15053;48.618;10.024;2023-02-24T04:45:33;93577.53;;;8.23;96.66
27643;BME280;15053;48.618;10.024;2023-02-24T04:48:01;93581.09;;;8.27;97.60
27643;BME280;15053;48.618;10.024;2023-02-24T04:50:33;93568.97;;;8.23;96.79
27643;BME280;15053;48.618;10.024;2023-02-24T04:53:10;93572.34;;;8.23;96.77
27643;BME280;15053;48.618;10.024;2023-02-24T04:55:43;93571.59;;;8.23;97.19
27643;BME280;15053;48.618;10.024;2023-02-24T04:58:16;93565.63;;;8.22;97.18
27643;BME280;15053;48.618;10.024;2023-02-24T05:00:47;93551.69;;;8.18;97.31
27643;BME280;15053;48.618;10.024;2023-02-24T05:03:15;93564.38;;;8.20;97.53
27643;BME280;15053;48.618;10.024;2023-02-24T05:05:50;93558.88;;;8.21;97.05
27643;BME280;15053;48.618;10.024;2023-02-24T05:08:18;93551.88;;;8.22;96.51
27643;BME280;15053;48.618;10.024;2023-02-24T05:10:46;93546.00;;;8.16;97.26
27643;BME280;15053;48.618;10.024;2023-02-24T05:13:20;93554.97;;;8.24;96.67
27643;BME280;15053;48.618;10.024;2023-02-24T05:15:47;93545.06;;;8.26;97.65
27643;BME280;15053;48.618;10.024;2023-02-24T05:18:15;93549.97;;;8.27;97.06
27643;BME280;15053;48.618;10.024;2023-02-24T05:20:44;93557.19;;;8.30;97.35
27643;BME280;15053;48.618;10.024;2023-02-24T05:23:33;93553.34;;;8.28;97.31
27643;BME280;15053;48.618;10.024;2023-02-24T05:26:03;93548.94;;;8.28;97.60
27643;BME280;15053;48.618;10.024;2023-02-24T05:28:35;93540.84;;;8.30;96.54
27643;BME280;15053;48.618;10.024;2023-02-24T05:31:13;93528.97;;;8.29;97.25
27643;BME280;15053;48.618;10.024;2023-02-24T05:33:42;93534.50;;;8.36;97.49
27643;BME280;15053;48.618;10.024;2023-02-24T05:36:12;93533.16;;;8.39;97.62
27643;BME280;15053;48.618;10.024;2023-02-24T05:38:41;93532.13;;;8.40;96.97
27643;BME280;15053;48.618;10.024;2023-02-24T05:41:12;93531.03;;;8.41;96.73
27643;BME280;15053;48.618;10.024;2023-02-24T05:43:43;93523.09;;;8.37;96.50
27643;BME280;15053;48.618;10.024;2023-02-24T05:46:14;93531.03;;;8.41;96.70
27643;BME280;15053;48.618;10.024;2023-02-24T05:48:41;93527.41;;;8.42;97.02
27643;BME280;15053;48.618;10.024;2023-02-24T05:51:09;93525.28;;;8.44;96.41
27643;BME280;15053;48.618;10.024;2023-02-24T05:53:38;93518.72;;;8.46;96.91
27643;BME280;15053;48.618;10.024;2023-02-24T05:56:08;93513.25;;;8.48;97.02
27643;BME280;15053;48.618;10.024;2023-02-24T05:58:35;93508.53;;;8.50;96.36
27643;BME280;15053;48.618;10.024;2023-02-24T06:01:11;93507.50;;;8.51;96.76
27643;BME280;15053;48.618;10.024;2023-02-24T06:03:42;93508.06;;;8.48;96.20
27643;BME280;15053;48.618;10.024;2023-02-24T06:06:14;93499.06;;;8.45;96.44
27643;BME280;15053;48.618;10.024;2023-02-24T06:08:42;93492.19;;;8.49;96.25
27643;BME280;15053;48.618;10.024;2023-02-24T06:11:16;93499.72;;;8.51;96.32
27643;BME280;15053;48.618;10.024;2023-02-24T06:13:45;93502.59;;;8.49;96.92
27643;BME280;15053;48.618;10.024;2023-02-24T06:16:16;93495.56;;;8.50;96.14
27643;BME280;15053;48.618;10.024;2023-02-24T06:18:47;93490.84;;;8.52;96.56
27643;BME280;15053;48.618;10.024;2023-02-24T06:21:15;93490.84;;;8.52;96.35
27643;BME280;15053;48.618;10.024;2023-02-24T06:23:41;93497.59;;;8.53;95.64
27643;BME280;15053;48.618;10.024;2023-02-24T06:26:08;93503.34;;;8.50;96.33
27643;BME280;15053;48.618;10.024;2023-02-24T06:28:45;93507.59;;;8.46;95.23
27643;BME280;15053;48.618;10.024;2023-02-24T06:31:11;93494.72;;;8.41;95.89
27643;BME280;15053;48.618;10.024;2023-02-24T06:33:40;93501.56;;;8.37;95.32
27643;BME280;15053;48.618;10.024;2023-02-24T06:36:07;93497.06;;;8.28;95.64
27643;BME280;15053;48.618;10.024;2023-02-24T06:38:35;93505.88;;;8.27;95.52
27643;BME280;15053;48.618;10.024;2023-02-24T06:41:03;93502.78;;;8.25;95.19
27643;BME280;15053;48.618;10.024;2023-02-24T06:43:40;93493.56;;;8.19;96.32
27643;BME280;15053;48.618;10.024;2023-02-24T06:46:10;93495.91;;;8.21;95.69
27643;BME280;15053;48.618;10.024;2023-02-24T06:48:38;93496.63;;;8.21;96.66
27643;BME280;15053;48.618;10.024;2023-02-24T06:51:06;93502.44;;;8.18;96.17
27643;BME280;15053;48.618;10.024;2023-02-24T06:53:33;93502.44;;;8.18;96.47
27643;BME280;15053;48.618;10.024;2023-02-24T06:56:13;93503.38;;;8.22;96.56
27643;BME280;15053;48.618;10.024;2023-02-24T06:58:41;93503.84;;;8.24;96.96
27643;BME280;15053;48.618;10.024;2023-02-24T07:01:13;93502.25;;;8.28;97.15
27643;BME280;15053;48.618;10.024;2023-02-24T07:03:41;93503.50;;;8.31;96.98
27643;BME280;15053;48.618;10.024;2023-02-24T07:06:29;93499.06;;;8.32;96.16
27643;BME280;15053;48.618;10.024;2023-02-24T07:08:57;93496.47;;;8.32;96.24
27643;BME280;15053;48.618;10.024;2023-02-24T07:11:24;93499.06;;;8.32;96.78
27643;BME280;15053;48.618;10.024;2023-02-24T07:13:51;93492.22;;;8.36;97.17
27643;BME280;15053;48.618;10.024;2023-02-24T07:16:21;93498.38;;;8.40;96.35
27643;BME280;15053;48.618;10.024;2023-02-24T07:18:55;93496.72;;;8.44;96.99
27643;BME280;15053;48.618;10.024;2023-02-24T07:21:24;93490.50;;;8.45;96.28
27643;BME280;15053;48.618;10.024;2023-02-24T07:23:52;93484.34;;;8.41;96.94
27643;BME280;15053;48.618;10.024;2023-02-24T07:26:26;93483.75;;;8.44;96.08
27643;BME280;15053;48.618;10.024;2023-02-24T07:28:53;93480.13;;;8.45;96.36
27643;BME280;15053;48.618;10.024;2023-02-24T07:31:21;93477.53;;;8.45;96.14
27643;BME280;15053;48.618;10.024;2023-02-24T07:33:54;93483.00;;;8.43;97.10
27643;BME280;15053;48.618;10.024;2023-02-24T07:36:23;93478.41;;;8.40;96.54
27643;BME280;15053;48.618;10.024;2023-02-24T07:38:51;93467.25;;;8.40;96.70
27643;BME280;15053;48.618;10.024;2023-02-24T07:41:20;93470.78;;;8.44;96.69
27643;BME280;15053;48.618;10.024;2023-02-24T07:43:49;93461.66;;;8.46;96.34
27643;BME280;15053;48.618;10.024;2023-02-24T07:46:20;93462.16;;;8.48;96.46
27643;BME280;15053;48.618;10.024;2023-02-24T07:48:51;93460.31;;;8.49;96.72
27643;BME280;15053;48.618;10.024;2023-02-24T07:51:21;93466.56;;;8.48;96.55
27643;BME280;15053;48.618;10.024;2023-02-24T07:53:53;93464.44;;;8.50;96.59
27643;BME280;15053;48.618;10.024;2023-02-24T07:56:22;93460.91;;;8.46;96.61
27643;BME280;15053;48.618;10.024;2023-02-24T07:59:12;93460.91;;;8.46;96.43
27643;BME280;15053;48.618;10.024;2023-02-24T08:01:41;93455.22;;;8.44;96.63
27643;BME280;15053;48.618;10.024;2023-02-24T08:04:19;93459.81;;;8.47;96.80
27643;BME280;15053;48.618;10.024;2023-02-24T08:06:49;93448.97;;;8.45;96.63
27643;BME280;15053;48.618;10.024;2023-02-24T08:09:26;93456.47;;;8.46;95.84
27643;BME280;15053;48.618;10.024;2023-02-24T08:12:20;93454.38;;;8.48;96.08
27643;BME280;15053;48.618;10.024;2023-02-24T08:14:52;93441.19;;;8.45;96.31
27643;BME280;15053;48.618;10.024;2023-02-24T08:17:23;93451.47;;;8.50;96.66
27643;BME280;15053;48.618;10.024;2023-02-24T08:19:53;93446.16;;;8.55;96.58
27643;BME280;15053;48.618;10.024;2023-02-24T08:22:39;93449.72;;;8.59;95.75
27643;BME280;15053;48.618;10.024;2023-02-24T08:25:10;93441.63;;;8.60;96.03
27643;BME280;15053;48.618;10.024;2023-02-24T08:27:47;93436.63;;;8.64;96.27
27643;BME280;15053;48.618;10.024;2023-02-24T08:30:34;93426.69;;;8.66;96.17
27643;BME280;15053;48.618;10.024;2023-02-24T08:33:06;93425.06;;;8.70;95.79
27643;BME280;15053;48.618;10.024;2023-02-24T08:35:35;93431.78;;;8.71;95.58
27643;BME280;15053;48.618;10.024;2023-02-24T08:38:05;93430.25;;;8.70;95.60
27643;BME280;15053;48.618;10.024;2023-02-24T08:40:39;93431.78;;;8.71;95.84
27643;BME280;15053;48.618;10.024;2023-02-24T08:43:23;93435.00;;;8.76;95.47
27643;BME280;15053;48.618;10.024;2023-02-24T08:48:39;93424.34;;;8.78;95.12
27643;BME280;15053;48.618;10.024;2023-02-24T08:53:41;93419.63;;;8.80;95.47
27643;BME280;15053;48.618;10.024;2023-02-24T08:56:11;93420.09;;;8.82;94.93
27643;BME280;15053;48.618;10.024;2023-02-24T08:58:43;93417.22;;;8.83;95.28
27643;BME280;15053;48.618;10.024;2023-02-24T09:01:18;93411.44;;;8.86;95.01
27643;BME280;15053;48.618;10.024;2023-02-24T09:03:55;93414.19;;;8.90;94.36
27643;BME280;15053;48.618;10.024;2023-02-24T09:06:33;93402.63;;;8.96;95.00
27643;BME280;15053;48.618;10.024;2023-02-24T09:09:00;93400.84;;;9.05;94.60
27643;BME280;15053;48.618;10.024;2023-02-24T09:11:54;93395.06;;;9.08;94.50
27643;BME280;15053;48.618;10.024;2023-02-24T09:14:27;93389.28;;;9.11;94.24
27643;BME280;15053;48.618;10.024;2023-02-24T09:16:57;93389.59;;;9.18;93.34
27643;BME280;15053;48.618;10.024;2023-02-24T09:19:37;93382.75;;;9.22;93.68
27643;BME280;15053;48.618;10.024;2023-02-24T09:22:25;93382.63;;;9.27;92.83
27643;BME280;15053;48.618;10.024;2023-02-24T09:25:04;93384.47;;;9.35;92.77
27643;BME280;15053;48.618;10.024;2023-02-24T09:28:11;93385.72;;;9.38;92.58
27643;BME280;15053;48.618;10.024;2023-02-24T09:30:50;93382.53;;;9.41;92.36
27643;BME280;15053;48.618;10.024;2023-02-24T09:33:30;93368.47;;;9.42;92.24
27643;BME280;15053;48.618;10.024;2023-02-24T09:38:36;93378.09;;;9.41;91.59
27643;BME280;15053;48.618;10.024;2023-02-24T09:41:38;93376.22;;;9.33;91.01
27643;BME280;15053;48.618;10.024;2023-02-24T09:44:45;93370.84;;;9.30;91.34
27643;BME280;15053;48.618;10.024;2023-02-24T09:47:25;93373.91;;;9.32;91.19
27643;BME280;15053;48.618;10.024;2023-02-24T09:53:11;93363.28;;;9.42;91.00
27643;BME280;15053;48.618;10.024;2023-02-24T09:55:44;93360.81;;;9.45;91.15
27643;BME280;15053;48.618;10.024;2023-02-24T10:01:32;93361.13;;;9.44;90.54
27643;BME280;15053;48.618;10.024;2023-02-24T10:06:53;93358.97;;;9.37;89.93
27643;BME280;15053;48.618;10.024;2023-02-24T10:09:27;93354.84;;;9.36;89.87
27643;BME280;15053;48.618;10.024;2023-02-24T10:14:51;93358.19;;;9.37;89.55
27643;BME280;15053;48.618;10.024;2023-02-24T10:17:27;93346.28;;;9.36;89.49
27643;BME280;15053;48.618;10.024;2023-02-24T10:20:15;93339.72;;;9.38;89.63
27643;BME280;15053;48.618;10.024;2023-02-24T10:23:12;93344.00;;;9.43;89.55
27643;BME280;15053;48.618;10.024;2023-02-24T10:25:50;93340.63;;;9.42;89.64
27643;BME280;15053;48.618;10.024;2023-02-24T10:28:43;93342.16;;;9.43;89.84
27643;BME280;15053;48.618;10.024;2023-02-24T10:31:29;93335.31;;;9.47;89.65
27643;BME280;15053;48.618;10.024;2023-02-24T10:34:04;93329.50;;;9.50;89.28
27643;BME280;15053;48.618;10.024;2023-02-24T10:36:32;93333.63;;;9.52;89.62
27643;BME280;15053;48.618;10.024;2023-02-24T10:41:45;93327.97;;;9.49;89.16
27643;BME280;15053;48.618;10.024;2023-02-24T10:44:23;93323.06;;;9.48;88.29
27643;BME280;15053;48.618;10.024;2023-02-24T10:47:02;93323.38;;;9.46;88.25
27643;BME280;15053;48.618;10.024;2023-02-24T10:52:36;93320.31;;;9.44;88.45
27643;BME280;15053;48.618;10.024;2023-02-24T10:58:33;93319.38;;;9.40;88.35
27643;BME280;15053;48.618;10.024;2023-02-24T11:01:12;93310.66;;;9.36;88.14
27643;BME280;15053;48.618;10.024;2023-02-24T11:03:51;93315.38;;;9.34;87.97
27643;BME280;15053;48.618;10.024;2023-02-24T11:06:30;93308.34;;;9.26;87.90
27643;BME280;15053;48.618;10.024;2023-02-24T11:12:02;93311.34;;;9.11;87.78
27643;BME280;15053;48.618;10.024;2023-02-24T11:14:57;93306.13;;;9.03;88.28
27643;BME280;15053;48.618;10.024;2023-02-24T11:17:49;93302.28;;;9.00;88.14
27643;BME280;15053;48.618;10.024;2023-02-24T11:23:18;93286.22;;;8.89;88.44
27643;BME280;15053;48.618;10.024;2023-02-24T11:25:48;93288.81;;;8.89;88.70
27643;BME280;15053;48.618;10.024;2023-02-24T11:31:22;93285.91;;;8.91;88.90
27643;BME280;15053;48.618;10.024;2023-02-24T11:34:02;93272.94;;;8.91;89.01
27643;BME280;15053;48.618;10.024;2023-02-24T11:39:47;93268.97;;;8.94;88.03
27643;BME280;15053;48.618;10.024;2023-02-24T11:42:21;93262.41;;;8.96;88.33
27643;BME280;15053;48.618;10.024;2023-02-24T11:45:06;93259.66;;;9.01;88.27
27643;BME280;15053;48.618;10.024;2023-02-24T11:47:44;93240.13;;;9.04;88.47
27643;BME280;15053;48.618;10.024;2023-02-24T11:50:30;93241.81;;;9.08;88.26
27643;BME280;15053;48.618;10.024;2023-02-24T11:53:02;93247.47;;;9.10;88.61
27643;BME280;15053;48.618;10.024;2023-02-24T11:55:38;93236.03;;;9.11;88.00
27643;BME280;15053;48.618;10.024;2023-02-24T11:58:16;93221.97;;;9.12;87.74
27643;BME280;15053;48.618;10.024;2023-02-24T12:01:15;93220.91;;;9.13;87.05
27643;BME280;15053;48.618;10.024;2023-02-24T12:03:51;93219.69;;;9.11;86.63
27643;BME280;15053;48.618;10.024;2023-02-24T12:06:27;93211.25;;;9.05;86.41
27643;BME280;15053;48.618;10.024;2023-02-24T12:09:02;93194.63;;;9.06;86.38
27643;BME280;15053;48.618;10.024;2023-02-24T12:11:44;93199.97;;;9.10;86.21
27643;BME280;15053;48.618;10.024;2023-02-24T12:14:20;93194.75;;;9.10;86.28
27643;BME280;15053;48.618;10.024;2023-02-24T12:16:56;93184.53;;;9.13;86.10
27643;BME280;15053;48.618;10.024;2023-02-24T12:19:39;93180.41;;;9.21;85.86
27643;BME280;15053;48.618;10.024;2023-02-24T12:22:14;93186.22;;;9.26;85.72
27643;BME280;15053;48.618;10.024;2023-02-24T12:24:47;93179.22;;;9.27;86.08
27643;BME280;15053;48.618;10.024;2023-02-24T12:28:12;93181.81;;;9.35;85.95
27643;BME280;15053;48.618;10.024;2023-02-24T12:30:49;93174.31;;;9.42;85.19
27643;BME280;15053;48.618;10.024;2023-02-24T12:39:17;93156.88;;;9.86;83.04
27643;BME280;15053;48.618;10.024;2023-02-24T12:44:37;93149.84;;;10.41;81.47
27643;BME280;15053;48.618;10.024;2023-02-24T12:47:13;93146.75;;;10.56;80.31
27643;BME280;15053;48.618;10.024;2023-02-24T12:52:42;93145.47;;;10.25;78.43
27643;BME280;15053;48.618;10.024;2023-02-24T12:55:22;93131.56;;;10.12;78.71
27643;BME280;15053;48.618;10.024;2023-02-24T12:58:11;93138.94;;;10.10;78.75
27643;BME280;15053;48.618;10.024;2023-02-24T13:00:50;93132.03;;;10.14;77.70
27643;BME280;15053;48.618;10.024;2023-02-24T13:03:38;93124.22;;;10.14;77.30
27643;BME280;15053;48.618;10.024;2023-02-24T13:06:31;93115.81;;;10.17;76.96
27643;BME280;15053;48.618;10.024;2023-02-24T13:09:20;93112.78;;;10.44;76.57
27643;BME280;15053;48.618;10.024;2023-02-24T13:14:28;93096.50;;;11.06;75.60
27643;BME280;15053;48.618;10.024;2023-02-24T13:19:41;93102.03;;;11.04;73.89
27643;BME280;15053;48.618;10.024;2023-02-24T13:24:40;93101.50;;;10.70;75.42
27643;BME280;15053;48.618;10.024;2023-02-24T13:27:25;93088.41;;;10.57;75.91
27643;BME280;15053;48.618;10.024;2023-02-24T13:29:56;93085.66;;;10.54;76.30
27643;BME280;15053;48.618;10.024;2023-02-24T13:32:34;93080.16;;;10.47;76.56
27643;BME280;15053;48.618;10.024;2023-02-24T13:37:52;93075.91;;;10.42;77.38
27643;BME280;15053;48.618;10.024;2023-02-24T13:42:58;93074.44;;;10.33;77.06
27643;BME280;15053;48.618;10.024;2023-02-24T13:45:26;93073.72;;;10.24;76.88
27643;BME280;15053;48.618;10.024;2023-02-24T13:48:16;93062.56;;;10.15;77.42
27643;BME280;15053;48.618;10.024;2023-02-24T13:50:55;93072.78;;;10.11;77.77
27643;BME280;15053;48.618;10.024;2023-02-24T13:56:49;93064.94;;;9.90;77.96
27643;BME280;15053;48.618;10.024;2023-02-24T13:59:43;93059.44;;;9.83;78.20
27643;BME280;15053;48.618;10.024;2023-02-24T14:02:20;93053.00;;;9.81;78.54
27643;BME280;15053;48.618;10.024;2023-02-24T14:04:53;93047.06;;;9.80;78.85
27643;BME280;15053;48.618;10.024;2023-02-24T14:07:23;93042.31;;;9.82;79.10
27643;BME280;15053;48.618;10.024;2023-02-24T14:09:57;93046.31;;;9.80;79.06
27643;BME280;15053;48.618;10.024;2023-02-24T14:12:33;93048.75;;;9.76;79.00
27643;BME280;15053;48.618;10.024;2023-02-24T14:15:01;93046.00;;;9.73;79.25
27643;BME280;15053;48.618;10.024;2023-02-24T14:17:35;93034.72;;;9.69;79.57
27643;BME280;15053;48.618;10.024;2023-02-24T14:22:31;93034.13;;;9.55;79.41
27643;BME280;15053;48.618;10.024;2023-02-24T14:25:03;93034.91;;;9.55;79.32
27643;BME280;15053;48.618;10.024;2023-02-24T14:27:30;93025.91;;;9.53;79.66
27643;BME280;15053;48.618;10.024;2023-02-24T14:29:57;93029.56;;;9.52;80.22
27643;BME280;15053;48.618;10.024;2023-02-24T14:32:25;93015.50;;;9.53;79.48
27643;BME280;15053;48.618;10.024;2023-02-24T14:34:52;93001.41;;;9.54;80.24
27643;BME280;15053;48.618;10.024;2023-02-24T14:37:25;93009.69;;;9.56;79.94
27643;BME280;15053;48.618;10.024;2023-02-24T14:39:55;92994.97;;;9.60;79.83
27643;BME280;15053;48.618;10.024;2023-02-24T14:42:23;93001.09;;;9.64;79.65
27643;BME280;15053;48.618;10.024;2023-02-24T14:44:52;92988.53;;;9.66;79.60
27643;BME280;15053;48.618;10.024;2023-02-24T14:47:22;92981.19;;;9.68;79.29
27643;BME280;15053;48.618;10.024;2023-02-24T14:49:57;92987.78;;;9.65;79.36
27643;BME280;15053;48.618;10.024;2023-02-24T14:55:14;92975.56;;;9.57;79.45
27643;BME280;15053;48.618;10.024;2023-02-24T14:57:47;92974.19;;;9.60;79.79
27643;BME280;15053;48.618;10.024;2023-02-24T15:00:20;92976.78;;;9.60;79.46
27643;BME280;15053;48.618;10.024;2023-02-24T15:02:54;92971.91;;;9.58;79.70
27643;BME280;15053;48.618;10.024;2023-02-24T15:05:22;92969.00;;;9.60;79.93
27643;BME280;15053;48.618;10.024;2023-02-24T15:07:49;92967.47;;;9.59;79.98
27643;BME280;15053;48.618;10.024;2023-02-24T15:10:23;92971.59;;;9.60;80.26
27643;BME280;15053;48.618;10.024;2023-02-24T15:12:56;92960.75;;;9.58;80.15
27643;BME280;15053;48.618;10.024;2023-02-24T15:15:28;92959.97;;;9.57;79.88
27643;BME280;15053;48.618;10.024;2023-02-24T15:17:58;92949.91;;;9.56;79.67
27643;BME280;15053;48.618;10.024;2023-02-24T15:20:35;92947.94;;;9.53;80.04
27643;BME280;15053;48.618;10.024;2023-02-24T15:23:02;92941.81;;;9.48;79.85
27643;BME280;15053;48.618;10.024;2023-02-24T15:25:43;92938.31;;;9.53;80.24